« Back
NWS Peachtree City, Ga » Text Product » MCN Terminal Aerodrome Forecast


Printer-friendly Version
Current Version              Previous Versions:   1  2  3  4  5  6  7  8  9  

Terminal Aerodrome Forecast

785
FTUS42 KFFC 040540
TAFMCN
TAF
KMCN 040540Z 0406/0506 27003KT 6SM BR SKC
      TEMPO 0410/0413 4SM BR
     FM041400 01004KT P6SM SCT040 SCT250
     FM041700 03005KT P6SM SCT050 BKN250=



USA.gov is the U.S. government's official web portal to all federal, state and local government web resources and services.